createdAt,value
2023-05-19T00:01:00.917Z,7.15
2023-05-19T00:03:30.558Z,7.80
2023-05-19T00:05:59.251Z,8.15
2023-05-19T00:08:33.351Z,7.97
2023-05-19T00:11:01.971Z,8.57
2023-05-19T00:13:30.274Z,7.65
2023-05-19T00:15:58.136Z,7.15
2023-05-19T00:18:26.706Z,7.60
2023-05-19T00:20:54.488Z,7.05
2023-05-19T00:23:22.814Z,7.22
2023-05-19T00:25:50.275Z,7.43
2023-05-19T00:28:18.475Z,7.20
2023-05-19T00:30:46.331Z,7.88
2023-05-19T00:33:14.610Z,7.32
2023-05-19T00:35:42.319Z,8.20
2023-05-19T00:38:10.642Z,7.60
2023-05-19T00:40:38.541Z,7.30
2023-05-19T00:43:08.564Z,6.95
2023-05-19T00:45:36.820Z,6.90
2023-05-19T00:48:06.488Z,7.47
2023-05-19T00:50:34.745Z,6.68
2023-05-19T00:53:03.146Z,7.30
2023-05-19T00:55:32.617Z,6.50
2023-05-19T00:58:01.220Z,7.15
2023-05-19T01:00:30.386Z,6.80
2023-05-19T01:02:58.794Z,7.65
2023-05-19T01:05:27.280Z,7.40
2023-05-19T01:07:56.911Z,7.57
2023-05-19T01:10:25.602Z,7.50
2023-05-19T01:12:53.544Z,7.40
2023-05-19T01:15:21.535Z,6.85
2023-05-19T01:17:57.171Z,7.32
2023-05-19T01:20:33.424Z,7.78
2023-05-19T01:23:07.793Z,7.15
2023-05-19T01:25:48.393Z,8.05
2023-05-19T01:28:43.100Z,6.95
2023-05-19T01:31:12.840Z,7.35
2023-05-19T01:33:41.895Z,7.85
2023-05-19T01:36:12.884Z,8.02
2023-05-19T01:38:41.207Z,7.22
2023-05-19T01:41:10.300Z,7.70
2023-05-19T01:43:38.694Z,7.25
2023-05-19T01:46:07.152Z,8.18
2023-05-19T01:48:35.553Z,7.47
2023-05-19T01:51:03.328Z,7.10
2023-05-19T01:53:31.686Z,8.13
2023-05-19T01:56:01.319Z,8.00
2023-05-19T01:58:46.051Z,7.55
2023-05-19T02:01:32.516Z,7.72
2023-05-19T02:04:40.458Z,7.20
2023-05-19T02:07:16.152Z,8.23
2023-05-19T02:09:54.527Z,7.35
2023-05-19T02:12:41.570Z,8.63
2023-05-19T02:15:16.543Z,7.13
2023-05-19T02:17:52.150Z,8.10
2023-05-19T02:20:22.549Z,7.30
2023-05-19T02:22:51.107Z,8.13
2023-05-19T02:25:19.663Z,7.03
2023-05-19T02:27:49.448Z,7.32
2023-05-19T02:30:17.609Z,6.93
2023-05-19T02:32:46.978Z,7.68
2023-05-19T02:35:15.474Z,8.02
2023-05-19T02:37:44.003Z,8.50
2023-05-19T02:40:12.328Z,8.60
2023-05-19T02:42:40.007Z,8.73
2023-05-19T02:45:09.007Z,8.93
2023-05-19T02:47:37.289Z,9.82
2023-05-19T02:50:06.617Z,14.00
2023-05-19T02:52:34.485Z,13.27
2023-05-19T02:55:02.737Z,13.25
2023-05-19T02:57:32.005Z,12.00
2023-05-19T03:00:00.196Z,10.00
2023-05-19T03:02:28.040Z,9.68
2023-05-19T03:04:56.525Z,9.02
2023-05-19T03:07:25.512Z,8.63
2023-05-19T03:09:53.991Z,7.50
2023-05-19T03:12:22.385Z,7.15
2023-05-19T03:14:50.649Z,7.25
2023-05-19T03:17:18.299Z,7.18
2023-05-19T03:19:46.520Z,6.75
2023-05-19T03:22:14.317Z,6.70
2023-05-19T03:24:42.754Z,6.47
2023-05-19T03:27:13.107Z,5.68
2023-05-19T03:29:41.430Z,5.78
2023-05-19T03:32:09.495Z,5.38
2023-05-19T03:34:38.111Z,6.20
2023-05-19T03:37:06.474Z,6.10
2023-05-19T03:39:37.679Z,6.22
2023-05-19T03:42:05.714Z,6.03
2023-05-19T03:44:33.854Z,5.82
2023-05-19T03:47:01.268Z,6.35
2023-05-19T03:49:48.542Z,6.30
2023-05-19T03:52:34.861Z,5.70
2023-05-19T03:55:21.744Z,5.45
2023-05-19T03:57:49.725Z,5.68
2023-05-19T04:00:18.137Z,6.30
2023-05-19T04:02:46.038Z,6.63
2023-05-19T04:05:14.839Z,6.43
2023-05-19T04:07:43.317Z,6.10
2023-05-19T04:10:12.285Z,6.55
2023-05-19T04:12:40.507Z,6.70
2023-05-19T04:15:11.602Z,6.57
2023-05-19T04:17:40.147Z,6.28
2023-05-19T04:20:08.831Z,6.30
2023-05-19T04:22:36.547Z,6.55
2023-05-19T04:25:05.229Z,6.63
2023-05-19T04:27:36.846Z,6.97
2023-05-19T04:30:06.412Z,6.30
2023-05-19T04:32:34.453Z,5.53
2023-05-19T04:35:03.719Z,5.93
2023-05-19T04:37:32.538Z,5.97
2023-05-19T04:40:00.456Z,5.57
2023-05-19T04:42:30.984Z,4.90
2023-05-19T04:45:03.609Z,6.00
2023-05-19T04:47:37.154Z,4.57
2023-05-19T04:50:07.706Z,4.15
2023-05-19T04:52:36.595Z,3.80
2023-05-19T04:55:07.085Z,3.72
2023-05-19T04:57:35.430Z,4.30
2023-05-19T05:00:10.503Z,3.88
2023-05-19T05:02:46.925Z,3.25
2023-05-19T05:05:20.382Z,3.78
2023-05-19T05:07:47.917Z,4.13
2023-05-19T05:10:16.742Z,3.35
2023-05-19T05:12:45.143Z,3.30
2023-05-19T05:15:13.988Z,3.92
2023-05-19T05:17:42.404Z,3.45
2023-05-19T05:20:13.078Z,3.80
2023-05-19T05:22:42.356Z,3.35
2023-05-19T05:25:12.134Z,3.53
2023-05-19T05:27:39.828Z,3.75
2023-05-19T05:30:09.979Z,4.18
2023-05-19T05:32:39.157Z,4.10
2023-05-19T05:35:13.486Z,3.80
2023-05-19T05:37:41.850Z,4.10
2023-05-19T05:40:10.500Z,4.20
2023-05-19T05:42:38.129Z,4.13
2023-05-19T05:45:07.432Z,4.57
2023-05-19T05:47:40.149Z,4.40
2023-05-19T05:50:11.081Z,4.13
2023-05-19T05:52:40.420Z,4.10
2023-05-19T05:55:12.336Z,3.87
2023-05-19T05:57:43.540Z,3.58
2023-05-19T06:00:16.156Z,4.35
2023-05-19T06:02:47.844Z,4.43
2023-05-19T06:05:18.318Z,3.45
2023-05-19T06:07:47.729Z,4.30
2023-05-19T06:10:21.620Z,3.95
2023-05-19T06:12:51.098Z,4.88
2023-05-19T06:15:19.529Z,3.90
2023-05-19T06:18:00.725Z,3.95
2023-05-19T06:20:29.477Z,4.38
2023-05-19T06:22:58.346Z,3.60
2023-05-19T06:25:28.394Z,4.20
2023-05-19T06:27:57.644Z,3.72
2023-05-19T06:30:26.390Z,3.42
2023-05-19T06:33:06.061Z,4.32
2023-05-19T06:35:34.728Z,4.00
2023-05-19T06:38:02.774Z,4.53
2023-05-19T06:40:31.496Z,3.95
2023-05-19T06:42:59.247Z,4.28
2023-05-19T06:45:46.470Z,4.00
2023-05-19T06:48:14.407Z,4.10
2023-05-19T06:50:42.728Z,3.90
2023-05-19T06:53:10.616Z,4.30
2023-05-19T06:55:50.715Z,4.07
2023-05-19T06:58:27.451Z,4.20
2023-05-19T07:00:56.122Z,4.30
2023-05-19T07:03:27.843Z,4.30
2023-05-19T07:05:56.557Z,4.13
2023-05-19T07:08:24.395Z,3.70
2023-05-19T07:10:53.261Z,3.78
2023-05-19T07:13:21.546Z,3.97
2023-05-19T07:15:50.176Z,4.05
2023-05-19T07:18:18.852Z,4.63
2023-05-19T07:20:47.077Z,4.10
2023-05-19T07:23:17.282Z,4.03
2023-05-19T07:25:47.748Z,4.32
2023-05-19T07:28:15.609Z,4.30
2023-05-19T07:30:44.301Z,5.03
2023-05-19T07:33:12.088Z,4.63
2023-05-19T07:35:40.613Z,4.80
2023-05-19T07:38:08.503Z,3.60
2023-05-19T07:40:37.004Z,4.10
2023-05-19T07:43:04.843Z,4.43
2023-05-19T07:45:33.386Z,4.60
2023-05-19T07:48:01.520Z,4.05
2023-05-19T07:50:30.642Z,4.22
2023-05-19T07:52:58.570Z,4.38
2023-05-19T07:55:26.929Z,4.22
2023-05-19T07:57:54.724Z,4.25
2023-05-19T08:00:23.348Z,4.00
2023-05-19T08:02:51.322Z,4.55
2023-05-19T08:05:19.704Z,4.15
2023-05-19T08:07:47.563Z,3.72
2023-05-19T08:10:16.240Z,3.50
2023-05-19T08:12:44.791Z,3.75
2023-05-19T08:15:13.441Z,4.22
2023-05-19T08:17:41.293Z,4.15
2023-05-19T08:20:10.685Z,3.90
2023-05-19T08:22:38.772Z,4.45
2023-05-19T08:25:07.800Z,5.97
2023-05-19T08:27:36.035Z,4.30
2023-05-19T08:30:04.594Z,4.35
2023-05-19T08:32:32.544Z,3.78
2023-05-19T08:35:00.974Z,3.83
2023-05-19T08:37:28.757Z,4.55
2023-05-19T08:39:57.532Z,4.90
2023-05-19T08:42:25.884Z,4.57
2023-05-19T08:44:54.172Z,4.68
2023-05-19T08:47:23.347Z,4.75
2023-05-19T08:49:54.091Z,4.28
2023-05-19T08:52:31.515Z,4.65
2023-05-19T08:55:04.981Z,4.40
2023-05-19T08:57:33.356Z,4.57
2023-05-19T09:00:01.723Z,4.50
2023-05-19T09:02:30.168Z,5.20
2023-05-19T09:04:59.064Z,4.63
2023-05-19T09:07:27.590Z,4.80
2023-05-19T09:09:56.599Z,4.85
2023-05-19T09:12:24.274Z,5.25
2023-05-19T09:14:53.239Z,4.72
2023-05-19T09:17:21.445Z,4.32
2023-05-19T09:19:50.008Z,4.13
2023-05-19T09:22:19.736Z,4.55
2023-05-19T09:24:48.557Z,5.32
2023-05-19T09:27:23.041Z,4.97
2023-05-19T09:29:51.670Z,4.60
2023-05-19T09:32:27.382Z,4.47
2023-05-19T09:34:55.908Z,4.72
2023-05-19T09:37:24.733Z,4.38
2023-05-19T09:39:53.806Z,3.90
2023-05-19T09:42:30.071Z,4.30
2023-05-19T09:45:02.467Z,4.93
2023-05-19T09:47:38.393Z,4.65
2023-05-19T09:50:10.977Z,4.57
2023-05-19T09:52:41.301Z,3.90
2023-05-19T09:55:11.316Z,4.90
2023-05-19T09:57:40.726Z,4.35
2023-05-19T10:00:19.270Z,4.13
2023-05-19T10:02:48.775Z,4.32
2023-05-19T10:05:20.434Z,4.45
2023-05-19T10:07:52.974Z,3.47
2023-05-19T10:10:22.527Z,4.47
2023-05-19T10:12:51.054Z,4.28
2023-05-19T10:15:29.535Z,4.50
2023-05-19T10:17:57.869Z,4.55
2023-05-19T10:20:27.063Z,4.30
2023-05-19T10:22:55.135Z,5.18
2023-05-19T10:25:23.451Z,3.55
2023-05-19T10:27:58.760Z,4.60
2023-05-19T10:30:30.483Z,4.25
2023-05-19T10:33:00.914Z,4.32
2023-05-19T10:35:48.124Z,4.32
2023-05-19T10:38:36.724Z,4.32
2023-05-19T10:41:17.398Z,4.45
2023-05-19T10:43:53.218Z,3.90
2023-05-19T10:46:25.706Z,5.20
2023-05-19T10:48:54.516Z,5.53
2023-05-19T10:51:31.653Z,4.45
2023-05-19T10:54:03.122Z,4.60
2023-05-19T10:56:36.799Z,4.80
2023-05-19T11:01:37.738Z,4.78
2023-05-19T11:04:14.460Z,4.63
2023-05-19T11:06:51.941Z,4.57
2023-05-19T11:09:28.352Z,4.30
2023-05-19T11:12:04.201Z,4.50
2023-05-19T11:14:32.901Z,4.25
2023-05-19T11:17:01.533Z,5.10
2023-05-19T11:19:31.782Z,4.65
2023-05-19T11:22:13.565Z,5.20
2023-05-19T11:24:46.887Z,4.53
2023-05-19T11:27:31.841Z,4.50
2023-05-19T11:30:15.042Z,4.95
2023-05-19T11:32:44.496Z,5.25
2023-05-19T11:35:13.021Z,5.57
2023-05-19T11:37:42.916Z,4.55
2023-05-19T11:40:11.560Z,4.95
2023-05-19T11:42:39.466Z,5.18
2023-05-19T11:45:08.995Z,5.13
2023-05-19T11:47:50.981Z,4.55
2023-05-19T11:50:26.402Z,4.82
2023-05-19T11:52:55.241Z,4.78
2023-05-19T11:55:23.707Z,5.03
2023-05-19T11:58:05.244Z,4.80
2023-05-19T12:00:40.205Z,5.32
2023-05-19T12:03:09.674Z,5.30
2023-05-19T12:05:42.752Z,4.90
2023-05-19T12:08:12.361Z,5.00
2023-05-19T12:10:41.412Z,4.78
2023-05-19T12:13:10.568Z,5.38
2023-05-19T12:15:39.623Z,4.80
2023-05-19T12:18:08.079Z,5.50
2023-05-19T12:20:36.542Z,4.97
2023-05-19T12:23:05.238Z,5.45
2023-05-19T12:25:33.760Z,5.95
2023-05-19T12:28:05.955Z,5.55
2023-05-19T12:30:34.942Z,5.35
2023-05-19T12:33:04.111Z,5.07
2023-05-19T12:35:36.433Z,12.13
2023-05-19T12:40:38.022Z,5.30
2023-05-19T12:43:07.160Z,4.95
2023-05-19T12:45:39.094Z,5.03
2023-05-19T12:48:12.738Z,5.57
2023-05-19T12:53:09.800Z,5.50
2023-05-19T12:55:41.213Z,5.18
2023-05-19T12:58:09.928Z,6.03
2023-05-19T13:00:45.719Z,5.55
2023-05-19T13:03:18.388Z,5.85
2023-05-19T13:05:48.068Z,6.23
2023-05-19T13:08:20.697Z,6.13
2023-05-19T13:10:49.984Z,5.38
2023-05-19T13:13:18.468Z,5.82
2023-05-19T13:15:49.494Z,5.05
2023-05-19T13:18:18.583Z,5.00
2023-05-19T13:20:47.514Z,5.30
2023-05-19T13:23:16.483Z,5.68
2023-05-19T13:25:45.023Z,5.28
2023-05-19T13:28:13.005Z,5.28
2023-05-19T13:30:42.124Z,5.00
2023-05-19T13:33:10.432Z,5.03
2023-05-19T13:35:38.936Z,4.68
2023-05-19T13:38:11.625Z,4.82
2023-05-19T13:40:41.147Z,4.97
2023-05-19T13:43:10.126Z,5.13
2023-05-19T13:45:38.324Z,6.70
2023-05-19T13:48:07.691Z,5.88
2023-05-19T13:50:36.736Z,5.85
2023-05-19T13:53:05.375Z,6.70
2023-05-19T13:55:33.839Z,5.75
2023-05-19T13:58:01.976Z,6.63
2023-05-19T14:00:32.554Z,7.78
2023-05-19T14:03:01.009Z,6.13
2023-05-19T14:05:29.635Z,6.78
2023-05-19T14:07:58.300Z,6.22
2023-05-19T14:10:26.563Z,6.10
2023-05-19T14:15:34.491Z,6.40
2023-05-19T14:18:03.139Z,6.05
2023-05-19T14:20:32.668Z,5.72
2023-05-19T14:23:01.110Z,5.93
2023-05-19T14:25:29.395Z,6.35
2023-05-19T14:27:57.541Z,6.15
2023-05-19T14:30:25.976Z,6.35
2023-05-19T14:32:53.866Z,5.95
2023-05-19T14:35:23.514Z,6.93
2023-05-19T14:37:52.293Z,5.68
2023-05-19T14:40:20.604Z,5.95
2023-05-19T14:42:48.440Z,6.18
2023-05-19T14:45:16.790Z,7.18
2023-05-19T14:47:45.249Z,6.32
2023-05-19T14:50:14.022Z,6.82
2023-05-19T14:52:42.340Z,6.03
2023-05-19T14:55:14.009Z,6.38
2023-05-19T14:57:41.999Z,6.75
2023-05-19T15:00:10.685Z,6.07
2023-05-19T15:02:39.026Z,5.97
2023-05-19T15:05:08.774Z,5.93
2023-05-19T15:07:37.193Z,6.40
2023-05-19T15:10:06.186Z,6.15
2023-05-19T15:12:34.545Z,5.88
2023-05-19T15:15:02.886Z,6.40
2023-05-19T15:17:31.461Z,6.50
2023-05-19T15:19:59.798Z,5.93
2023-05-19T15:22:27.645Z,6.82
2023-05-19T15:24:56.203Z,6.78
2023-05-19T15:27:24.060Z,6.93
2023-05-19T15:29:52.405Z,6.00
2023-05-19T15:32:20.436Z,6.60
2023-05-19T15:34:49.113Z,5.88
2023-05-19T15:37:17.462Z,6.80
2023-05-19T15:39:46.197Z,5.80
2023-05-19T15:42:13.961Z,5.85
2023-05-19T15:44:41.999Z,5.80
2023-05-19T15:47:10.329Z,5.43
2023-05-19T15:49:38.908Z,6.20
2023-05-19T15:52:07.181Z,6.38
2023-05-19T15:54:35.432Z,6.25
2023-05-19T15:57:03.424Z,5.85
2023-05-19T15:59:31.883Z,5.80
2023-05-19T16:01:59.764Z,6.00
2023-05-19T16:04:28.408Z,6.30
2023-05-19T16:06:56.656Z,5.65
2023-05-19T16:09:25.491Z,6.45
2023-05-19T16:11:53.234Z,6.57
2023-05-19T16:14:21.813Z,5.82
2023-05-19T16:16:49.783Z,5.72
2023-05-19T16:19:18.435Z,5.97
2023-05-19T16:21:46.548Z,6.55
2023-05-19T16:24:14.938Z,6.70
2023-05-19T16:26:42.997Z,6.43
2023-05-19T16:29:11.180Z,6.03
2023-05-19T16:31:39.104Z,6.85
2023-05-19T16:34:07.647Z,5.53
2023-05-19T16:36:36.755Z,5.82
2023-05-19T16:39:05.447Z,6.38
2023-05-19T16:41:33.159Z,6.10
2023-05-19T16:44:03.135Z,6.07
2023-05-19T16:46:31.649Z,6.72
2023-05-19T16:48:59.985Z,6.30
2023-05-19T16:51:28.352Z,6.80
2023-05-19T16:53:56.560Z,6.25
2023-05-19T16:56:24.740Z,8.70
2023-05-19T16:58:55.006Z,7.07
2023-05-19T17:01:23.162Z,6.70
2023-05-19T17:03:51.889Z,7.53
2023-05-19T17:06:19.988Z,7.32
2023-05-19T17:08:48.280Z,7.32
2023-05-19T17:11:16.406Z,7.50
2023-05-19T17:13:46.581Z,8.00
2023-05-19T17:16:15.223Z,8.15
2023-05-19T17:18:44.144Z,7.80
2023-05-19T17:21:12.301Z,9.18
2023-05-19T17:23:40.540Z,8.35
2023-05-19T17:26:08.994Z,8.95
2023-05-19T17:28:37.554Z,9.13
2023-05-19T17:31:17.593Z,8.20
2023-05-19T17:33:46.063Z,7.80
2023-05-19T17:36:14.563Z,8.38
2023-05-19T17:38:43.103Z,8.85
2023-05-19T17:41:11.766Z,8.70
2023-05-19T17:43:40.937Z,8.63
2023-05-19T17:46:10.315Z,8.15
2023-05-19T17:48:40.304Z,8.10
2023-05-19T17:51:08.489Z,8.90
2023-05-19T17:53:37.102Z,8.82
2023-05-19T17:56:09.094Z,8.93
2023-05-19T17:58:37.550Z,7.75
2023-05-19T18:01:06.229Z,7.97
2023-05-19T18:03:34.686Z,7.85
2023-05-19T18:06:03.400Z,8.52
2023-05-19T18:08:32.341Z,8.13
2023-05-19T18:11:00.969Z,8.98
2023-05-19T18:13:28.858Z,8.88
2023-05-19T18:15:59.513Z,8.50
2023-05-19T18:18:27.661Z,8.95
2023-05-19T18:20:55.928Z,8.65
2023-05-19T18:23:24.019Z,9.52
2023-05-19T18:25:53.480Z,9.18
2023-05-19T18:28:21.825Z,8.60
2023-05-19T18:31:04.755Z,9.85
2023-05-19T18:33:33.022Z,9.90
2023-05-19T18:36:01.595Z,10.20
2023-05-19T18:38:29.602Z,9.63
2023-05-19T18:40:57.896Z,9.55
2023-05-19T18:43:25.586Z,9.68
2023-05-19T18:45:57.341Z,9.18
2023-05-19T18:48:28.467Z,9.25
2023-05-19T18:50:57.505Z,11.20
2023-05-19T18:53:25.519Z,10.48
2023-05-19T18:55:53.934Z,11.80
2023-05-19T18:58:22.373Z,12.32
2023-05-19T19:00:51.023Z,11.88
2023-05-19T19:03:18.876Z,12.57
2023-05-19T19:05:54.728Z,14.95
2023-05-19T19:08:22.916Z,17.15
2023-05-19T19:10:52.619Z,14.95
2023-05-19T19:13:21.365Z,13.85
2023-05-19T19:15:49.614Z,13.23
2023-05-19T19:18:17.690Z,10.77
2023-05-19T19:20:46.569Z,10.40
2023-05-19T19:23:14.310Z,10.55
2023-05-19T19:25:43.196Z,11.00
2023-05-19T19:28:11.124Z,10.65
2023-05-19T19:30:39.756Z,10.98
2023-05-19T19:33:07.653Z,11.18
2023-05-19T19:35:36.255Z,10.30
2023-05-19T19:38:04.093Z,11.10
2023-05-19T19:40:33.023Z,11.07
2023-05-19T19:43:01.115Z,10.85
2023-05-19T19:45:29.282Z,11.15
2023-05-19T19:47:57.638Z,10.63
2023-05-19T19:50:26.356Z,11.30
2023-05-19T19:52:54.245Z,11.32
2023-05-19T19:55:22.769Z,11.07
2023-05-19T19:57:51.598Z,11.38
2023-05-19T20:00:20.262Z,11.40
2023-05-19T20:03:03.615Z,11.73
2023-05-19T20:05:33.698Z,13.35
2023-05-19T20:08:01.494Z,12.02
2023-05-19T20:10:30.519Z,11.80
2023-05-19T20:12:59.349Z,12.50
2023-05-19T20:15:27.933Z,11.45
2023-05-19T20:17:56.665Z,11.25
2023-05-19T20:20:25.268Z,12.18
2023-05-19T20:22:53.083Z,11.70
2023-05-19T20:25:21.139Z,12.80
2023-05-19T20:27:49.513Z,13.32
2023-05-19T20:30:17.380Z,13.88
2023-05-19T20:32:47.170Z,12.85
2023-05-19T20:35:16.851Z,11.88
2023-05-19T20:37:48.299Z,11.85
2023-05-19T20:40:16.202Z,12.25
2023-05-19T20:42:44.589Z,11.77
2023-05-19T20:45:12.426Z,11.98
2023-05-19T20:47:40.992Z,11.07
2023-05-19T20:50:09.014Z,11.13
2023-05-19T20:52:37.472Z,11.85
2023-05-19T20:55:05.732Z,11.60
2023-05-19T20:57:34.441Z,11.23
2023-05-19T21:00:02.757Z,10.50
2023-05-19T21:02:31.428Z,11.38
2023-05-19T21:04:59.560Z,10.48
2023-05-19T21:07:27.752Z,10.00
2023-05-19T21:09:56.688Z,10.48
2023-05-19T21:12:25.620Z,9.65
2023-05-19T21:14:53.576Z,9.25
2023-05-19T21:17:22.116Z,10.07
2023-05-19T21:19:50.654Z,8.93
2023-05-19T21:22:19.206Z,9.88
2023-05-19T21:24:47.046Z,9.88
2023-05-19T21:27:15.609Z,10.23
2023-05-19T21:29:43.395Z,9.55
2023-05-19T21:32:11.986Z,9.88
2023-05-19T21:34:39.744Z,10.57
2023-05-19T21:37:08.298Z,9.95
2023-05-19T21:39:36.298Z,9.52
2023-05-19T21:42:04.924Z,9.85
2023-05-19T21:44:33.148Z,9.65
2023-05-19T21:47:01.548Z,10.52
2023-05-19T21:49:29.768Z,9.77
2023-05-19T21:51:58.365Z,9.75
2023-05-19T21:54:26.259Z,9.73
2023-05-19T21:56:54.553Z,10.65
2023-05-19T21:59:25.032Z,9.35
2023-05-19T22:01:53.257Z,9.70
2023-05-19T22:04:22.025Z,10.35
2023-05-19T22:06:50.455Z,10.63
2023-05-19T22:09:19.437Z,9.80
2023-05-19T22:11:47.796Z,9.93
2023-05-19T22:14:15.652Z,9.80
2023-05-19T22:16:44.404Z,10.63
2023-05-19T22:19:12.964Z,10.02
2023-05-19T22:21:42.600Z,10.35
2023-05-19T22:24:10.882Z,10.27
2023-05-19T22:26:43.003Z,10.73
2023-05-19T22:29:15.389Z,10.18
2023-05-19T22:31:43.606Z,10.15
2023-05-19T22:34:12.903Z,9.88
2023-05-19T22:36:41.838Z,10.10
2023-05-19T22:39:09.529Z,9.73
2023-05-19T22:41:37.656Z,10.10
2023-05-19T22:44:05.674Z,9.50
2023-05-19T22:46:34.448Z,9.85
2023-05-19T22:49:02.708Z,9.88
2023-05-19T22:51:31.460Z,10.60
2023-05-19T22:53:59.200Z,9.85
2023-05-19T22:56:27.691Z,10.38
2023-05-19T22:58:55.577Z,10.35
2023-05-19T23:01:23.915Z,10.15
2023-05-19T23:03:51.673Z,9.88
2023-05-19T23:06:19.701Z,9.85
2023-05-19T23:08:47.706Z,10.18
2023-05-19T23:11:16.101Z,10.93
2023-05-19T23:13:43.823Z,10.50
2023-05-19T23:16:11.838Z,9.82
2023-05-19T23:18:39.786Z,9.60
2023-05-19T23:21:08.200Z,10.70
2023-05-19T23:23:37.396Z,10.73
2023-05-19T23:26:05.996Z,9.80
2023-05-19T23:28:33.727Z,9.68
2023-05-19T23:31:02.136Z,10.75
2023-05-19T23:33:30.132Z,9.60
2023-05-19T23:35:59.926Z,9.15
2023-05-19T23:38:28.267Z,8.82
2023-05-19T23:40:56.620Z,9.18
2023-05-19T23:43:24.506Z,8.52
2023-05-19T23:45:52.681Z,8.77
2023-05-19T23:48:20.360Z,9.40
2023-05-19T23:50:48.681Z,8.38
2023-05-19T23:53:16.477Z,8.05
2023-05-19T23:55:45.291Z,7.38
2023-05-19T23:58:13.163Z,7.90
